createdAt,value
2023-04-01T00:00:23.030Z,1003.89
2023-04-01T00:00:53.192Z,1003.99
2023-04-01T00:01:24.352Z,1003.99
2023-04-01T00:01:55.286Z,1004.20
2023-04-01T00:02:26.472Z,1004.20
2023-04-01T00:02:57.233Z,1003.99
2023-04-01T00:03:28.293Z,1003.99
2023-04-01T00:03:59.279Z,1003.89
2023-04-01T00:04:30.340Z,1003.89
2023-04-01T00:05:01.988Z,1003.59
2023-04-01T00:05:32.132Z,1003.59
2023-04-01T00:06:02.895Z,1003.79
2023-04-01T00:06:33.905Z,1003.79
2023-04-01T00:07:04.877Z,1004.10
2023-04-01T00:07:36.163Z,1004.10
2023-04-01T00:08:06.954Z,1003.89
2023-04-01T00:08:37.942Z,1003.89
2023-04-01T00:09:08.872Z,1003.89
2023-04-01T00:09:39.978Z,1003.79
2023-04-01T00:10:11.889Z,1003.79
2023-04-01T00:10:42.222Z,1003.89
2023-04-01T00:11:13.267Z,1003.89
2023-04-01T00:11:43.926Z,1003.89
2023-04-01T00:12:14.980Z,1003.89
2023-04-01T00:12:47.305Z,1003.79
2023-04-01T00:13:17.249Z,1003.79
2023-04-01T00:13:48.395Z,1003.89
2023-04-01T00:14:19.357Z,1003.89
2023-04-01T00:14:50.333Z,1003.69
2023-04-01T00:15:22.174Z,1003.69
2023-04-01T00:15:52.310Z,1003.69
2023-04-01T00:16:23.253Z,1003.69
2023-04-01T00:16:54.390Z,1003.69
2023-04-01T00:17:25.379Z,1003.69
2023-04-01T00:17:56.567Z,1003.59
2023-04-01T00:18:26.921Z,1003.59
2023-04-01T00:18:58.072Z,1003.59
2023-04-01T00:19:29.093Z,1003.59
2023-04-01T00:20:00.419Z,1003.69
2023-04-01T00:20:31.118Z,1003.69
2023-04-01T00:21:02.145Z,1003.79
2023-04-01T00:21:33.988Z,1003.79
2023-04-01T00:22:05.918Z,1003.79
2023-04-01T00:22:35.443Z,1003.79
2023-04-01T00:23:08.605Z,1003.79
2023-04-01T00:23:36.987Z,1003.89
2023-04-01T00:24:08.496Z,1003.89
2023-04-01T00:24:39.039Z,1003.59
2023-04-01T00:25:10.668Z,1003.59
2023-04-01T00:25:40.946Z,1003.79
2023-04-01T00:26:12.261Z,1003.79
2023-04-01T00:26:43.297Z,1003.69
2023-04-01T00:27:14.252Z,1003.69
2023-04-01T00:27:44.950Z,1003.99
2023-04-01T00:28:16.464Z,1003.99
2023-04-01T00:28:47.367Z,1003.89
2023-04-01T00:29:18.320Z,1003.89
2023-04-01T00:29:48.993Z,1003.89
2023-04-01T00:30:20.846Z,1003.89
2023-04-01T00:30:50.970Z,1003.89
2023-04-01T00:31:22.218Z,1003.89
2023-04-01T00:31:53.158Z,1003.79
2023-04-01T00:32:24.153Z,1003.79
2023-04-01T00:32:55.344Z,1003.99
2023-04-01T00:33:26.229Z,1003.99
2023-04-01T00:33:57.190Z,1003.89
2023-04-01T00:34:28.296Z,1003.89
2023-04-01T00:34:59.194Z,1003.79
2023-04-01T00:35:31.016Z,1003.79
2023-04-01T00:36:01.225Z,1003.79
2023-04-01T00:36:32.243Z,1003.79
2023-04-01T00:37:02.963Z,1003.79
2023-04-01T00:37:34.204Z,1003.79
2023-04-01T00:38:05.391Z,1003.59
2023-04-01T00:38:36.497Z,1003.59
2023-04-01T00:39:07.387Z,1003.59
2023-04-01T00:39:38.456Z,1003.79
2023-04-01T00:40:09.412Z,1003.79
2023-04-01T00:40:40.149Z,1003.79
2023-04-01T00:41:11.222Z,1003.79
2023-04-01T00:41:42.310Z,1003.79
2023-04-01T00:42:13.152Z,1003.79
2023-04-01T00:42:44.464Z,1003.89
2023-04-01T00:43:15.267Z,1003.89
2023-04-01T00:43:46.665Z,1003.79
2023-04-01T00:44:17.272Z,1003.79
2023-04-01T00:44:48.057Z,1003.99
2023-04-01T00:45:20.497Z,1003.99
2023-04-01T00:45:50.266Z,1003.59
2023-04-01T00:46:21.039Z,1003.59
2023-04-01T00:46:52.123Z,1003.59
2023-04-01T00:47:23.224Z,1003.59
2023-04-01T00:47:54.468Z,1003.89
2023-04-01T00:48:25.447Z,1003.89
2023-04-01T00:48:56.284Z,1003.89
2023-04-01T00:49:27.427Z,1003.89
2023-04-01T00:49:58.372Z,1003.69
2023-04-01T00:50:30.019Z,1003.69
2023-04-01T00:51:00.043Z,1003.99
2023-04-01T00:51:31.646Z,1003.99
2023-04-01T00:52:02.044Z,1003.79
2023-04-01T00:52:33.576Z,1003.79
2023-04-01T00:53:04.206Z,1003.59
2023-04-01T00:53:37.475Z,1003.79
2023-04-01T00:54:06.568Z,1003.79
2023-04-01T00:54:39.831Z,1003.99
2023-04-01T00:55:08.918Z,1003.99
2023-04-01T00:55:39.094Z,1003.89
2023-04-01T00:56:10.578Z,1003.89
2023-04-01T00:56:41.595Z,1003.69
2023-04-01T00:57:12.234Z,1003.69
2023-04-01T00:57:43.240Z,1003.69
2023-04-01T00:58:14.541Z,1003.69
2023-04-01T00:58:45.113Z,1003.69
2023-04-01T00:59:16.131Z,1003.69
2023-04-01T00:59:47.448Z,1003.59
2023-04-01T01:00:19.800Z,1003.59
2023-04-01T01:00:49.308Z,1003.79
2023-04-01T01:01:20.407Z,1003.79
2023-04-01T01:01:51.088Z,1003.59
2023-04-01T01:02:22.774Z,1003.59
2023-04-01T01:02:53.539Z,1003.69
2023-04-01T01:03:24.567Z,1003.69
2023-04-01T01:03:55.384Z,1003.79
2023-04-01T01:04:26.639Z,1003.79
2023-04-01T01:04:57.751Z,1003.69
2023-04-01T01:05:29.472Z,1003.69
2023-04-01T01:05:59.029Z,1003.79
2023-04-01T01:06:30.504Z,1003.79
2023-04-01T01:07:01.494Z,1003.59
2023-04-01T01:07:32.138Z,1003.59
2023-04-01T01:08:03.128Z,1003.39
2023-04-01T01:08:34.452Z,1003.39
2023-04-01T01:09:05.635Z,1003.69
2023-04-01T01:09:36.108Z,1003.69
2023-04-01T01:10:08.272Z,1003.39
2023-04-01T01:10:38.554Z,1003.59
2023-04-01T01:11:09.552Z,1003.59
2023-04-01T01:11:43.657Z,1003.69
2023-04-01T01:12:11.180Z,1003.69
2023-04-01T01:12:42.513Z,1003.59
2023-04-01T01:13:13.092Z,1003.59
2023-04-01T01:13:44.347Z,1003.59
2023-04-01T01:14:15.298Z,1003.59
2023-04-01T01:14:46.541Z,1003.79
2023-04-01T01:15:18.465Z,1003.79
2023-04-01T01:15:48.717Z,1003.69
2023-04-01T01:16:19.465Z,1003.69
2023-04-01T01:16:50.193Z,1003.49
2023-04-01T01:17:21.614Z,1003.49
2023-04-01T01:17:52.574Z,1003.69
2023-04-01T01:18:23.157Z,1003.69
2023-04-01T01:18:54.663Z,1003.59
2023-04-01T01:19:25.367Z,1003.59
2023-04-01T01:19:56.121Z,1003.59
2023-04-01T01:20:28.185Z,1003.59
2023-04-01T01:20:58.520Z,1003.79
2023-04-01T01:21:29.467Z,1003.79
2023-04-01T01:22:03.125Z,1003.69
2023-04-01T01:22:31.152Z,1003.69
2023-04-01T01:23:02.421Z,1003.69
2023-04-01T01:23:33.709Z,1003.69
2023-04-01T01:24:04.244Z,1003.39
2023-04-01T01:24:35.661Z,1003.39
2023-04-01T01:25:08.928Z,1003.59
2023-04-01T01:25:37.617Z,1003.59
2023-04-01T01:26:10.953Z,1003.59
2023-04-01T01:26:39.559Z,1003.59
2023-04-01T01:27:11.271Z,1003.59
2023-04-01T01:27:41.420Z,1003.69
2023-04-01T01:28:12.588Z,1003.69
2023-04-01T01:28:43.796Z,1003.59
2023-04-01T01:29:14.407Z,1003.59
2023-04-01T01:29:45.513Z,1003.49
2023-04-01T01:30:17.406Z,1003.49
2023-04-01T01:30:47.573Z,1003.79
2023-04-01T01:31:18.627Z,1003.79
2023-04-01T01:31:49.158Z,1003.49
2023-04-01T01:32:20.253Z,1003.49
2023-04-01T01:32:51.989Z,1003.49
2023-04-01T01:33:22.208Z,1003.49
2023-04-01T01:33:53.133Z,1003.49
2023-04-01T01:34:24.677Z,1003.49
2023-04-01T01:34:55.170Z,1003.59
2023-04-01T01:35:26.776Z,1003.59
2023-04-01T01:35:57.406Z,1003.69
2023-04-01T01:36:28.881Z,1003.69
2023-04-01T01:36:59.592Z,1003.39
2023-04-01T01:37:30.612Z,1003.39
2023-04-01T01:38:01.730Z,1003.49
2023-04-01T01:38:32.557Z,1003.49
2023-04-01T01:39:03.171Z,1003.59
2023-04-01T01:39:34.213Z,1003.59
2023-04-01T01:40:06.272Z,1003.49
2023-04-01T01:40:37.023Z,1003.49
2023-04-01T01:41:07.433Z,1003.69
2023-04-01T01:41:38.283Z,1003.69
2023-04-01T01:42:09.550Z,1003.69
2023-04-01T01:42:40.410Z,1003.69
2023-04-01T01:43:11.544Z,1003.69
2023-04-01T01:43:42.243Z,1003.49
2023-04-01T01:44:13.505Z,1003.49
2023-04-01T01:44:44.408Z,1003.59
2023-04-01T01:45:16.738Z,1003.59
2023-04-01T01:45:46.223Z,1003.69
2023-04-01T01:46:17.480Z,1003.69
2023-04-01T01:46:48.768Z,1003.69
2023-04-01T01:47:19.243Z,1003.69
2023-04-01T01:47:50.689Z,1003.89
2023-04-01T01:48:21.743Z,1003.89
2023-04-01T01:48:52.631Z,1003.89
2023-04-01T01:49:23.404Z,1003.89
2023-04-01T01:49:54.611Z,1003.39
2023-04-01T01:50:26.432Z,1003.39
2023-04-01T01:50:56.848Z,1003.59
2023-04-01T01:51:27.495Z,1003.59
2023-04-01T01:51:58.712Z,1003.49
2023-04-01T01:52:29.268Z,1003.49
2023-04-01T01:53:00.922Z,1003.49
2023-04-01T01:53:31.914Z,1003.49
2023-04-01T01:54:02.249Z,1003.69
2023-04-01T01:54:33.696Z,1003.69
2023-04-01T01:55:04.865Z,1003.49
2023-04-01T01:55:35.728Z,1003.49
2023-04-01T01:56:06.260Z,1003.59
2023-04-01T01:56:38.969Z,1003.28
2023-04-01T01:57:08.276Z,1003.28
2023-04-01T01:57:44.478Z,1003.49
2023-04-01T01:58:10.285Z,1003.49
2023-04-01T01:58:41.929Z,1003.49
2023-04-01T01:59:12.296Z,1003.49
2023-04-01T01:59:44.505Z,1003.59
2023-04-01T02:00:15.247Z,1003.59
2023-04-01T02:00:45.495Z,1003.49
2023-04-01T02:01:16.512Z,1003.49
2023-04-01T02:01:47.544Z,1003.69
2023-04-01T02:02:18.625Z,1003.69
2023-04-01T02:02:49.811Z,1003.39
2023-04-01T02:03:20.692Z,1003.39
2023-04-01T02:03:51.889Z,1003.59
2023-04-01T02:04:22.726Z,1003.59
2023-04-01T02:04:53.276Z,1003.59
2023-04-01T02:05:24.822Z,1003.59
2023-04-01T02:05:56.239Z,1003.49
2023-04-01T02:06:26.537Z,1003.49
2023-04-01T02:06:57.670Z,1003.39
2023-04-01T02:07:28.609Z,1003.39
2023-04-01T02:07:59.649Z,1003.28
2023-04-01T02:08:30.324Z,1003.28
2023-04-01T02:09:02.061Z,1003.59
2023-04-01T02:09:32.735Z,1003.59
2023-04-01T02:10:03.575Z,1003.69
2023-04-01T02:10:34.669Z,1003.69
2023-04-01T02:11:05.932Z,1003.59
2023-04-01T02:11:37.029Z,1003.59
2023-04-01T02:12:07.842Z,1003.49
2023-04-01T02:12:39.271Z,1003.59
2023-04-01T02:13:09.824Z,1003.59
2023-04-01T02:13:40.349Z,1003.49
2023-04-01T02:14:11.998Z,1003.49
2023-04-01T02:14:42.620Z,1003.59
2023-04-01T02:15:14.203Z,1003.59
2023-04-01T02:15:44.370Z,1003.59
2023-04-01T02:16:15.769Z,1003.59
2023-04-01T02:16:46.800Z,1003.59
2023-04-01T02:17:17.677Z,1003.59
2023-04-01T02:17:48.890Z,1003.69
2023-04-01T02:18:19.365Z,1003.69
2023-04-01T02:18:50.715Z,1003.69
2023-04-01T02:19:22.006Z,1003.69
2023-04-01T02:19:52.776Z,1003.69
2023-04-01T02:20:24.388Z,1003.69
2023-04-01T02:20:54.637Z,1003.59
2023-04-01T02:21:25.615Z,1003.59
2023-04-01T02:21:56.901Z,1003.79
2023-04-01T02:22:27.380Z,1003.79
2023-04-01T02:22:58.533Z,1003.79
2023-04-01T02:23:29.682Z,1003.79
2023-04-01T02:24:01.179Z,1003.49
2023-04-01T02:24:31.852Z,1003.49
2023-04-01T02:25:02.797Z,1003.59
2023-04-01T02:25:33.860Z,1003.59
2023-04-01T02:26:04.412Z,1003.59
2023-04-01T02:26:35.417Z,1003.59
2023-04-01T02:27:06.992Z,1003.59
2023-04-01T02:27:37.594Z,1003.49
2023-04-01T02:28:10.210Z,1003.49
2023-04-01T02:28:39.444Z,1003.59
2023-04-01T02:29:12.885Z,1003.59
2023-04-01T02:29:41.715Z,1003.59
2023-04-01T02:30:14.042Z,1003.59
2023-04-01T02:30:43.974Z,1003.49
2023-04-01T02:31:14.622Z,1003.49
2023-04-01T02:31:45.531Z,1003.69
2023-04-01T02:32:16.383Z,1003.69
2023-04-01T02:32:47.888Z,1003.59
2023-04-01T02:33:18.584Z,1003.59
2023-04-01T02:33:49.815Z,1003.39
2023-04-01T02:34:20.920Z,1003.39
2023-04-01T02:34:52.123Z,1003.39
2023-04-01T02:35:23.531Z,1003.39
2023-04-01T02:35:53.786Z,1003.59
2023-04-01T02:36:24.787Z,1003.59
2023-04-01T02:36:55.396Z,1003.49
2023-04-01T02:37:26.459Z,1003.49
2023-04-01T02:37:57.831Z,1003.59
2023-04-01T02:38:28.846Z,1003.59
2023-04-01T02:38:59.428Z,1003.59
2023-04-01T02:39:30.903Z,1003.59
2023-04-01T02:40:01.925Z,1003.69
2023-04-01T02:40:32.683Z,1003.69
2023-04-01T02:41:03.858Z,1003.49
2023-04-01T02:41:34.742Z,1003.49
2023-04-01T02:42:05.761Z,1003.39
2023-04-01T02:42:36.857Z,1003.39
2023-04-01T02:43:07.966Z,1003.69
2023-04-01T02:43:38.907Z,1003.69
2023-04-01T02:44:09.413Z,1003.69
2023-04-01T02:44:40.964Z,1003.69
2023-04-01T02:45:12.785Z,1003.69
2023-04-01T02:45:42.781Z,1003.49
2023-04-01T02:46:13.976Z,1003.49
2023-04-01T02:46:44.594Z,1003.49
2023-04-01T02:47:15.680Z,1003.49
2023-04-01T02:47:46.525Z,1003.79
2023-04-01T02:48:18.017Z,1003.79
2023-04-01T02:48:48.887Z,1003.69
2023-04-01T02:49:19.484Z,1003.69
2023-04-01T02:49:51.038Z,1003.49
2023-04-01T02:50:22.339Z,1003.49
2023-04-01T02:50:52.376Z,1003.49
2023-04-01T02:51:23.704Z,1003.49
2023-04-01T02:51:54.889Z,1003.69
2023-04-01T02:52:25.492Z,1003.69
2023-04-01T02:52:56.821Z,1003.89
2023-04-01T02:53:28.662Z,1003.89
2023-04-01T02:53:58.630Z,1003.69
2023-04-01T02:54:29.525Z,1003.69
2023-04-01T02:55:00.667Z,1003.59
2023-04-01T02:55:32.082Z,1003.59
2023-04-01T02:56:02.861Z,1003.59
2023-04-01T02:56:33.911Z,1003.59
2023-04-01T02:57:05.100Z,1003.79
2023-04-01T02:57:35.516Z,1003.79
2023-04-01T02:58:06.596Z,1003.69
2023-04-01T02:58:37.816Z,1003.79
2023-04-01T02:59:09.078Z,1003.79
2023-04-01T02:59:40.852Z,1003.69
2023-04-01T03:00:11.726Z,1003.69
2023-04-01T03:00:43.870Z,1003.59
2023-04-01T03:01:12.932Z,1003.59
2023-04-01T03:01:44.130Z,1003.69
2023-04-01T03:02:14.973Z,1003.69
2023-04-01T03:02:45.825Z,1003.59
2023-04-01T03:03:16.943Z,1003.59
2023-04-01T03:03:48.183Z,1003.89
2023-04-01T03:04:18.518Z,1003.89
2023-04-01T03:04:49.475Z,1003.79
2023-04-01T03:05:20.964Z,1003.79
2023-04-01T03:05:51.423Z,1003.69
2023-04-01T03:06:22.839Z,1003.69
2023-04-01T03:06:53.885Z,1003.79
2023-04-01T03:07:24.970Z,1003.79
2023-04-01T03:07:56.041Z,1003.59
2023-04-01T03:08:26.843Z,1003.59
2023-04-01T03:08:58.536Z,1003.59
2023-04-01T03:09:28.545Z,1003.59
2023-04-01T03:09:59.834Z,1003.89
2023-04-01T03:10:31.270Z,1003.89
2023-04-01T03:11:01.846Z,1003.89
2023-04-01T03:11:32.987Z,1003.89
2023-04-01T03:12:03.511Z,1003.79
2023-04-01T03:12:34.533Z,1003.79
2023-04-01T03:13:05.924Z,1003.99
2023-04-01T03:13:36.538Z,1003.99
2023-04-01T03:14:08.372Z,1003.59
2023-04-01T03:14:38.521Z,1003.79
2023-04-01T03:15:11.643Z,1003.79
2023-04-01T03:15:41.221Z,1003.69
2023-04-01T03:16:11.526Z,1003.69
2023-04-01T03:16:42.658Z,1003.59
2023-04-01T03:17:13.747Z,1003.59
2023-04-01T03:17:44.884Z,1003.59
2023-04-01T03:18:16.043Z,1003.59
2023-04-01T03:18:46.862Z,1003.49
2023-04-01T03:19:18.346Z,1003.49
2023-04-01T03:19:48.857Z,1003.59
2023-04-01T03:20:20.546Z,1003.59
2023-04-01T03:20:50.916Z,1003.59
2023-04-01T03:21:21.882Z,1003.59
2023-04-01T03:21:53.070Z,1003.69
2023-04-01T03:22:24.419Z,1003.69
2023-04-01T03:22:54.582Z,1003.79
2023-04-01T03:23:25.564Z,1003.79
2023-04-01T03:23:57.033Z,1003.79
2023-04-01T03:24:27.548Z,1003.79
2023-04-01T03:24:59.081Z,1003.79
2023-04-01T03:25:30.599Z,1003.79
2023-04-01T03:26:00.470Z,1004.10
2023-04-01T03:26:31.524Z,1004.10
2023-04-01T03:27:02.553Z,1003.69
2023-04-01T03:27:34.002Z,1003.69
2023-04-01T03:28:04.811Z,1003.99
2023-04-01T03:28:35.863Z,1003.99
2023-04-01T03:29:07.258Z,1003.79
2023-04-01T03:29:37.973Z,1003.79
2023-04-01T03:30:09.455Z,1003.79
2023-04-01T03:30:40.146Z,1003.79
2023-04-01T03:31:12.021Z,1003.79
2023-04-01T03:31:42.151Z,1003.79
2023-04-01T03:32:13.449Z,1003.79
2023-04-01T03:32:45.489Z,1003.79
2023-04-01T03:33:15.612Z,1003.79
2023-04-01T03:33:46.007Z,1003.89
2023-04-01T03:34:17.152Z,1003.89
2023-04-01T03:34:48.119Z,1003.69
2023-04-01T03:35:19.839Z,1003.69
2023-04-01T03:35:49.811Z,1003.79
2023-04-01T03:36:21.037Z,1003.79
2023-04-01T03:36:52.159Z,1003.89
2023-04-01T03:37:22.981Z,1003.89
2023-04-01T03:37:54.024Z,1003.99
2023-04-01T03:38:25.006Z,1003.99
2023-04-01T03:38:55.714Z,1003.79
2023-04-01T03:39:27.049Z,1003.79
2023-04-01T03:39:57.765Z,1003.99
2023-04-01T03:40:29.733Z,1003.99
2023-04-01T03:40:59.532Z,1003.89
2023-04-01T03:41:30.715Z,1003.89
2023-04-01T03:42:01.921Z,1003.89
2023-04-01T03:42:33.405Z,1003.89
2023-04-01T03:43:04.066Z,1003.89
2023-04-01T03:43:34.953Z,1003.89
2023-04-01T03:44:05.651Z,1003.99
2023-04-01T03:44:37.077Z,1003.99
2023-04-01T03:45:08.966Z,1003.99
2023-04-01T03:45:38.613Z,1003.89
2023-04-01T03:46:09.778Z,1003.89
2023-04-01T03:46:41.152Z,1003.89
2023-04-01T03:47:11.935Z,1003.89
2023-04-01T03:47:43.250Z,1003.99
2023-04-01T03:48:13.945Z,1003.99
2023-04-01T03:48:44.876Z,1003.99
2023-04-01T03:49:15.573Z,1003.99
2023-04-01T03:49:47.008Z,1003.69
2023-04-01T03:50:18.236Z,1003.69
2023-04-01T03:50:48.820Z,1004.10
2023-04-01T03:51:19.987Z,1004.10
2023-04-01T03:51:50.887Z,1003.99
2023-04-01T03:52:22.059Z,1003.99
2023-04-01T03:52:53.122Z,1004.10
2023-04-01T03:53:23.973Z,1004.10
2023-04-01T03:53:55.074Z,1004.20
2023-04-01T03:54:25.677Z,1004.20
2023-04-01T03:54:57.095Z,1003.99
2023-04-01T03:55:29.317Z,1003.99
2023-04-01T03:55:59.181Z,1004.10
2023-04-01T03:56:30.259Z,1004.10
2023-04-01T03:57:01.157Z,1003.89
2023-04-01T03:57:31.769Z,1003.89
2023-04-01T03:58:02.694Z,1003.89
2023-04-01T03:58:33.970Z,1003.89
2023-04-01T03:59:05.132Z,1004.10
2023-04-01T03:59:35.649Z,1004.10
2023-04-01T04:00:07.574Z,1003.99
2023-04-01T04:00:37.838Z,1003.89
2023-04-01T04:01:08.933Z,1003.89
2023-04-01T04:01:39.662Z,1003.89
2023-04-01T04:02:11.306Z,1003.89
2023-04-01T04:02:44.233Z,1003.89
2023-04-01T04:03:12.772Z,1003.89
2023-04-01T04:03:46.193Z,1003.79
2023-04-01T04:04:15.167Z,1003.79
2023-04-01T04:04:46.523Z,1004.10
2023-04-01T04:05:17.409Z,1004.10
2023-04-01T04:05:47.961Z,1003.89
2023-04-01T04:06:19.104Z,1003.89
2023-04-01T04:06:50.429Z,1003.79
2023-04-01T04:07:20.756Z,1003.79
2023-04-01T04:07:51.665Z,1003.99
2023-04-01T04:08:23.292Z,1003.99
2023-04-01T04:08:54.096Z,1003.89
2023-04-01T04:09:24.937Z,1003.89
2023-04-01T04:09:55.720Z,1003.89
2023-04-01T04:10:27.684Z,1003.89
2023-04-01T04:10:57.840Z,1003.99
2023-04-01T04:11:29.036Z,1003.99
2023-04-01T04:12:00.028Z,1003.79
2023-04-01T04:12:31.092Z,1003.79
2023-04-01T04:13:02.104Z,1003.99
2023-04-01T04:13:32.719Z,1003.99
2023-04-01T04:14:03.970Z,1003.89
2023-04-01T04:14:35.357Z,1003.89
2023-04-01T04:15:06.882Z,1003.89
2023-04-01T04:15:36.694Z,1003.89
2023-04-01T04:16:08.215Z,1003.89
2023-04-01T04:16:39.341Z,1003.89
2023-04-01T04:17:09.764Z,1003.89
2023-04-01T04:17:41.302Z,1003.89
2023-04-01T04:18:11.898Z,1003.89
2023-04-01T04:18:42.751Z,1004.10
2023-04-01T04:19:14.265Z,1004.10
2023-04-01T04:19:45.483Z,1004.10
2023-04-01T04:20:16.708Z,1004.10
2023-04-01T04:20:46.680Z,1003.89
2023-04-01T04:21:17.791Z,1003.89
2023-04-01T04:21:48.917Z,1003.99
2023-04-01T04:22:19.756Z,1003.99
2023-04-01T04:22:51.199Z,1003.99
2023-04-01T04:23:21.963Z,1003.99
2023-04-01T04:23:53.143Z,1003.89
2023-04-01T04:24:24.090Z,1003.89
2023-04-01T04:24:55.642Z,1003.69
2023-04-01T04:25:26.808Z,1003.69
2023-04-01T04:25:57.110Z,1003.89
2023-04-01T04:26:27.698Z,1003.89
2023-04-01T04:26:58.791Z,1003.99
2023-04-01T04:27:30.249Z,1003.99
2023-04-01T04:28:00.768Z,1003.99
2023-04-01T04:28:31.758Z,1003.99
2023-04-01T04:29:02.881Z,1003.89
2023-04-01T04:29:33.691Z,1003.89
2023-04-01T04:30:05.841Z,1003.99
2023-04-01T04:30:36.100Z,1003.99
2023-04-01T04:31:06.758Z,1003.89
2023-04-01T04:31:38.472Z,1003.99
2023-04-01T04:32:09.036Z,1003.99
2023-04-01T04:32:40.150Z,1003.99
2023-04-01T04:33:10.936Z,1003.99
2023-04-01T04:33:42.083Z,1003.89
2023-04-01T04:34:14.842Z,1003.89
2023-04-01T04:34:43.828Z,1003.49
2023-04-01T04:35:18.842Z,1003.49
2023-04-01T04:35:46.128Z,1003.99
2023-04-01T04:36:18.179Z,1003.99
2023-04-01T04:36:48.159Z,1003.89
2023-04-01T04:37:19.219Z,1003.89
2023-04-01T04:37:50.241Z,1003.89
2023-04-01T04:38:21.201Z,1003.89
2023-04-01T04:38:52.238Z,1003.89
2023-04-01T04:39:23.260Z,1003.89
2023-04-01T04:39:54.108Z,1003.89
2023-04-01T04:40:26.572Z,1003.89
2023-04-01T04:40:55.771Z,1003.79
2023-04-01T04:41:27.033Z,1003.79
2023-04-01T04:41:58.126Z,1003.79
2023-04-01T04:42:29.046Z,1003.79
2023-04-01T04:43:00.226Z,1003.79
2023-04-01T04:43:31.167Z,1003.79
2023-04-01T04:44:01.814Z,1003.99
2023-04-01T04:44:32.860Z,1003.99
2023-04-01T04:45:04.798Z,1004.10
2023-04-01T04:45:35.704Z,1004.10
2023-04-01T04:46:05.773Z,1003.89
2023-04-01T04:46:37.534Z,1003.89
2023-04-01T04:47:07.956Z,1003.79
2023-04-01T04:47:39.667Z,1003.69
2023-04-01T04:48:10.151Z,1003.69
2023-04-01T04:48:41.223Z,1003.89
2023-04-01T04:49:12.271Z,1003.89
2023-04-01T04:49:43.102Z,1003.89
2023-04-01T04:50:14.862Z,1003.89
2023-04-01T04:50:45.431Z,1003.79
2023-04-01T04:51:16.153Z,1003.79
2023-04-01T04:51:47.025Z,1003.79
2023-04-01T04:52:18.431Z,1003.79
2023-04-01T04:52:49.097Z,1003.89
2023-04-01T04:53:20.243Z,1003.89
2023-04-01T04:53:52.677Z,1003.99
2023-04-01T04:54:21.841Z,1003.99
2023-04-01T04:54:53.251Z,1003.89
2023-04-01T04:55:24.624Z,1003.89
2023-04-01T04:55:55.684Z,1003.69
2023-04-01T04:56:26.410Z,1003.69
2023-04-01T04:56:57.146Z,1003.89
2023-04-01T04:57:28.459Z,1003.89
2023-04-01T04:57:58.972Z,1003.79
2023-04-01T04:58:30.185Z,1003.79
2023-04-01T04:59:01.481Z,1003.69
2023-04-01T04:59:32.197Z,1003.69
2023-04-01T05:00:03.953Z,1004.10
2023-04-01T05:00:33.930Z,1004.10
2023-04-01T05:01:05.736Z,1003.69
2023-04-01T05:01:36.067Z,1003.69
2023-04-01T05:02:06.952Z,1003.69
2023-04-01T05:02:38.779Z,1003.69
2023-04-01T05:03:09.473Z,1003.69
2023-04-01T05:03:40.359Z,1003.69
2023-04-01T05:04:11.285Z,1003.69
2023-04-01T05:04:41.926Z,1003.69
2023-04-01T05:05:13.210Z,1003.69
2023-04-01T05:05:45.212Z,1003.59
2023-04-01T05:06:15.451Z,1003.59
2023-04-01T05:06:47.596Z,1003.69
2023-04-01T05:07:17.331Z,1003.69
2023-04-01T05:07:47.977Z,1003.99
2023-04-01T05:08:19.231Z,1003.99
2023-04-01T05:08:50.493Z,1003.79
2023-04-01T05:09:20.919Z,1003.79
2023-04-01T05:09:52.291Z,1003.59
2023-04-01T05:10:24.000Z,1003.59
2023-04-01T05:10:54.265Z,1003.89
2023-04-01T05:11:25.525Z,1003.89
2023-04-01T05:11:56.304Z,1003.59
2023-04-01T05:12:26.948Z,1003.59
2023-04-01T05:12:58.114Z,1003.79
2023-04-01T05:13:29.198Z,1003.79
2023-04-01T05:14:00.239Z,1003.69
2023-04-01T05:14:31.286Z,1003.69
2023-04-01T05:15:03.137Z,1003.79
2023-04-01T05:15:33.513Z,1003.79
2023-04-01T05:16:04.275Z,1003.69
2023-04-01T05:16:35.703Z,1003.69
2023-04-01T05:17:06.522Z,1003.99
2023-04-01T05:17:37.360Z,1003.99
2023-04-01T05:18:08.609Z,1003.79
2023-04-01T05:18:39.239Z,1003.79
2023-04-01T05:19:09.996Z,1003.79
2023-04-01T05:19:41.329Z,1003.89
2023-04-01T05:20:12.842Z,1003.89
2023-04-01T05:20:43.205Z,1003.69
2023-04-01T05:21:14.522Z,1003.69
2023-04-01T05:21:45.641Z,1003.69
2023-04-01T05:22:16.025Z,1003.69
2023-04-01T05:22:46.982Z,1003.59
2023-04-01T05:23:18.017Z,1003.59
2023-04-01T05:23:49.050Z,1003.69
2023-04-01T05:24:20.069Z,1003.69
2023-04-01T05:24:51.334Z,1003.89
2023-04-01T05:25:22.808Z,1003.89
2023-04-01T05:25:53.350Z,1003.89
2023-04-01T05:26:24.375Z,1003.89
2023-04-01T05:26:57.062Z,1003.79
2023-04-01T05:27:26.381Z,1003.79
2023-04-01T05:27:57.297Z,1003.89
2023-04-01T05:28:28.532Z,1003.89
2023-04-01T05:28:59.325Z,1003.89
2023-04-01T05:29:30.001Z,1003.89
2023-04-01T05:30:02.002Z,1003.99
2023-04-01T05:30:32.455Z,1003.99
2023-04-01T05:31:03.618Z,1003.89
2023-04-01T05:31:34.045Z,1003.89
2023-04-01T05:32:05.271Z,1003.89
2023-04-01T05:32:36.710Z,1003.89
2023-04-01T05:33:07.149Z,1004.10
2023-04-01T05:33:38.127Z,1003.79
2023-04-01T05:34:08.941Z,1003.79
2023-04-01T05:34:40.546Z,1003.89
2023-04-01T05:35:11.785Z,1003.89
2023-04-01T05:35:42.444Z,1003.89
2023-04-01T05:36:13.346Z,1003.89
2023-04-01T05:36:44.433Z,1003.99
2023-04-01T05:37:16.967Z,1003.99
2023-04-01T05:37:46.457Z,1003.99
2023-04-01T05:38:19.541Z,1003.99
2023-04-01T05:38:47.966Z,1003.79
2023-04-01T05:39:20.570Z,1003.79
2023-04-01T05:39:50.323Z,1003.69
2023-04-01T05:40:22.169Z,1003.69
2023-04-01T05:40:51.997Z,1003.99
2023-04-01T05:41:23.438Z,1003.99
2023-04-01T05:41:54.486Z,1003.99
2023-04-01T05:42:24.935Z,1003.99
2023-04-01T05:42:56.464Z,1003.99
2023-04-01T05:43:27.516Z,1003.99
2023-04-01T05:43:58.589Z,1004.20
2023-04-01T05:44:29.757Z,1004.20
2023-04-01T05:45:01.679Z,1004.10
2023-04-01T05:45:32.062Z,1004.10
2023-04-01T05:46:02.510Z,1004.10
2023-04-01T05:46:33.586Z,1004.10
2023-04-01T05:47:04.081Z,1004.10
2023-04-01T05:47:35.006Z,1004.10
2023-04-01T05:48:06.166Z,1004.10
2023-04-01T05:48:37.883Z,1004.10
2023-04-01T05:49:08.674Z,1003.99
2023-04-01T05:49:39.010Z,1003.99
2023-04-01T05:50:11.105Z,1003.99
2023-04-01T05:50:40.959Z,1003.79
2023-04-01T05:51:12.385Z,1003.79
2023-04-01T05:51:43.441Z,1003.99
2023-04-01T05:52:14.381Z,1003.99
2023-04-01T05:52:45.686Z,1003.79
2023-04-01T05:53:16.507Z,1003.79
2023-04-01T05:53:47.503Z,1003.79
2023-04-01T05:54:18.484Z,1003.79
2023-04-01T05:54:49.646Z,1003.99
2023-04-01T05:55:20.712Z,1003.99
2023-04-01T05:55:51.457Z,1003.99
2023-04-01T05:56:22.722Z,1003.99
2023-04-01T05:56:53.585Z,1003.99
2023-04-01T05:57:24.220Z,1003.99
2023-04-01T05:57:55.680Z,1003.99
2023-04-01T05:58:26.650Z,1003.99
2023-04-01T05:58:58.165Z,1003.79
2023-04-01T05:59:28.523Z,1003.79
2023-04-01T05:59:59.172Z,1003.79
2023-04-01T06:00:32.107Z,1003.79
2023-04-01T06:01:09.454Z,1003.69
2023-04-01T06:01:32.498Z,1003.69
2023-04-01T06:02:03.037Z,1003.79
2023-04-01T06:02:34.971Z,1003.79
2023-04-01T06:03:05.268Z,1003.69
2023-04-01T06:03:36.635Z,1003.69
2023-04-01T06:04:07.981Z,1003.89
2023-04-01T06:04:38.176Z,1003.89
2023-04-01T06:05:10.855Z,1003.89
2023-04-01T06:05:40.829Z,1003.69
2023-04-01T06:06:11.069Z,1003.69
2023-04-01T06:06:42.550Z,1003.89
2023-04-01T06:07:13.601Z,1003.89
2023-04-01T06:07:44.103Z,1003.59
2023-04-01T06:08:16.620Z,1003.59
2023-04-01T06:08:48.060Z,1003.59
2023-04-01T06:09:17.577Z,1003.59
2023-04-01T06:09:50.426Z,1003.79
2023-04-01T06:10:19.701Z,1003.79
2023-04-01T06:10:50.609Z,1003.79
2023-04-01T06:11:21.167Z,1003.79
2023-04-01T06:11:52.265Z,1003.59
2023-04-01T06:12:23.460Z,1003.59
2023-04-01T06:12:54.128Z,1003.69
2023-04-01T06:13:25.448Z,1003.69
2023-04-01T06:13:56.634Z,1003.49
2023-04-01T06:14:27.128Z,1003.49
2023-04-01T06:14:58.181Z,1003.99